Time;durP1;ratioP1;P1;durP2;ratioP2;P2;SDS_P1;SDS_P2;PMS_P1;PMS_P2;Temp;Humidity;BMP_temperature;BMP_pressure;BME280_temperature;BME280_humidity;BME280_pressure;Samples;Min_cycle;Max_cycle;Signal;HPM_P1;HPM_P2
2023/12/08 15:22:09;;;;;;;74.50;4.55;;;;;;;-0.39;100.00;92169.53;5134272;27;20321;-78
2023/12/08 15:24:35;;;;;;;56.50;4.25;;;;;;;-0.40;100.00;92173.13;5119132;27;20490;-78
2023/12/08 15:27:01;;;;;;;89.47;5.47;;;;;;;-0.42;100.00;92172.56;5126989;27;20133;-78
2023/12/08 15:29:26;;;;;;;16.83;3.95;;;;;;;-0.39;100.00;92168.78;5099087;27;20042;-78
2023/12/08 15:31:52;;;;;;;47.03;3.97;;;;;;;-0.37;100.00;92162.38;5126741;27;20031;-78
2023/12/08 15:34:17;;;;;;;24.50;3.65;;;;;;;-0.33;100.00;92163.50;5133705;27;20471;-78
2023/12/08 15:36:43;;;;;;;32.35;4.00;;;;;;;-0.26;100.00;92171.88;5099503;27;20047;-78
2023/12/08 15:39:08;;;;;;;126.13;5.47;;;;;;;-0.31;100.00;92160.72;5129190;27;20039;-77
2023/12/08 15:41:34;;;;;;;25.80;3.95;;;;;;;-0.27;100.00;92161.78;5132338;27;20435;-77
2023/12/08 15:44:00;;;;;;;23.85;4.05;;;;;;;-0.24;100.00;92166.50;5139949;27;20043;-77
2023/12/08 15:46:26;;;;;;;28.55;3.78;;;;;;;-0.23;100.00;92166.25;5132859;27;20047;-78
2023/12/08 15:48:52;;;;;;;112.00;7.95;;;;;;;-0.26;100.00;92164.16;5136119;27;20038;-78
2023/12/08 15:51:17;;;;;;;128.73;7.35;;;;;;;-0.19;100.00;92168.38;5133527;27;20046;-78
2023/12/08 15:53:43;;;;;;;236.27;7.40;;;;;;;-0.33;100.00;92171.22;5136684;27;20031;-78
2023/12/08 15:56:10;;;;;;;158.90;5.40;;;;;;;-0.22;100.00;92170.41;5136488;27;20033;-78
2023/12/08 15:58:39;;;;;;;157.00;5.97;;;;;;;-0.20;100.00;92177.91;5105556;27;20030;-78
2023/12/08 16:01:04;;;;;;;58.15;3.63;;;;;;;-0.30;100.00;92169.97;5112170;27;20019;-78
2023/12/08 16:03:30;;;;;;;64.38;4.55;;;;;;;-0.26;100.00;92177.00;5136888;27;20061;-77
2023/12/08 16:05:57;;;;;;;108.28;4.93;;;;;;;-0.21;100.00;92169.38;5132737;27;20047;-78
2023/12/08 16:08:22;;;;;;;60.28;4.22;;;;;;;-0.25;100.00;92176.03;5115048;27;20042;-78
2023/12/08 16:10:48;;;;;;;178.43;8.00;;;;;;;-0.25;100.00;92180.34;5126584;27;20043;-78
2023/12/08 16:13:13;;;;;;;36.78;4.47;;;;;;;-0.25;100.00;92183.75;5135933;27;20069;-78
2023/12/08 16:15:39;;;;;;;121.53;6.20;;;;;;;-0.24;100.00;92172.44;5135276;27;20027;-78
2023/12/08 16:18:05;;;;;;;201.55;9.60;;;;;;;-0.30;100.00;92175.91;5139270;27;20035;-78
2023/12/08 16:20:31;;;;;;;240.98;11.23;;;;;;;-0.34;100.00;92168.88;5139394;27;20413;-78
2023/12/08 16:22:57;;;;;;;179.95;8.98;;;;;;;-0.38;100.00;92181.41;5140961;27;20043;-78
2023/12/08 16:25:23;;;;;;;70.32;3.97;;;;;;;-0.40;100.00;92183.44;5141316;27;20031;-79
2023/12/08 16:27:49;;;;;;;173.98;6.28;;;;;;;-0.52;100.00;92185.22;5144848;27;20035;-79
2023/12/08 16:30:14;;;;;;;45.08;6.13;;;;;;;-0.56;100.00;92178.94;5145607;27;20031;-79
2023/12/08 16:32:40;;;;;;;23.90;2.85;;;;;;;-0.50;100.00;92183.19;5126149;27;20036;-78
2023/12/08 16:35:06;;;;;;;75.70;4.15;;;;;;;-0.45;100.00;92183.28;5128781;27;20035;-79
2023/12/08 16:37:34;;;;;;;94.80;4.38;;;;;;;-0.52;100.00;92177.50;5128838;27;20031;-79
2023/12/08 16:40:01;;;;;;;107.85;5.07;;;;;;;-0.50;100.00;92189.13;5116283;27;20038;-78
2023/12/08 16:42:27;;;;;;;59.70;4.03;;;;;;;-0.52;100.00;92183.44;5110429;27;20035;-78
2023/12/08 16:44:53;;;;;;;39.83;4.32;;;;;;;-0.42;100.00;92185.44;5125695;27;20247;-80
2023/12/08 16:47:19;;;;;;;159.95;6.53;;;;;;;-0.45;100.00;92183.28;5115095;27;20074;-80
2023/12/08 16:49:44;;;;;;;29.35;2.63;;;;;;;-0.44;100.00;92187.44;5123346;27;20065;-81
2023/12/08 16:52:10;;;;;;;14.23;2.53;;;;;;;-0.45;100.00;92184.09;5128650;27;20027;-78
2023/12/08 16:54:35;;;;;;;78.78;5.25;;;;;;;-0.48;100.00;92186.34;5130434;27;20094;-78
2023/12/08 16:57:01;;;;;;;17.75;3.05;;;;;;;-0.48;100.00;92186.34;5105584;27;20045;-78
2023/12/08 16:59:27;;;;;;;97.30;4.97;;;;;;;-0.50;100.00;92186.53;5104448;27;20042;-78
2023/12/08 17:01:52;;;;;;;49.95;9.13;;;;;;;-0.49;100.00;92195.06;5118939;27;20486;-78
2023/12/08 17:04:18;;;;;;;17.58;2.97;;;;;;;-0.48;100.00;92189.69;5125295;27;20413;-77
2023/12/08 17:06:43;;;;;;;94.70;4.75;;;;;;;-0.50;100.00;92191.69;5120122;27;20042;-77
2023/12/08 17:09:09;;;;;;;11.43;2.22;;;;;;;-0.50;100.00;92188.34;5094505;27;20039;-77
2023/12/08 17:11:34;;;;;;;10.45;2.80;;;;;;;-0.48;100.00;92189.69;5119946;27;20486;-77
2023/12/08 17:14:00;;;;;;;17.70;3.30;;;;;;;-0.45;100.00;92191.81;5122089;27;20502;-77
2023/12/08 17:16:26;;;;;;;5.35;3.00;;;;;;;-0.44;100.00;92187.44;5122832;27;20114;-77
2023/12/08 17:18:54;;;;;;;5.18;2.80;;;;;;;-0.39;100.00;92190.13;5124634;27;20075;-77
2023/12/08 17:21:21;;;;;;;15.80;3.50;;;;;;;-0.37;100.00;92188.09;5090788;27;20139;-77
2023/12/08 17:23:46;;;;;;;8.57;3.42;;;;;;;-0.32;100.00;92195.91;5096956;27;20445;-77
2023/12/08 17:26:12;;;;;;;29.85;3.65;;;;;;;-0.25;100.00;92200.94;5121752;27;20035;-77
2023/12/08 17:28:37;;;;;;;9.48;2.42;;;;;;;-0.24;100.00;92200.72;5104214;27;20106;-77
2023/12/08 17:31:03;;;;;;;4.95;2.10;;;;;;;-0.29;100.00;92199.84;5114076;27;20038;-77
2023/12/08 17:33:28;;;;;;;4.43;2.33;;;;;;;-0.33;100.00;92202.09;5119374;27;20119;-77
2023/12/08 17:35:54;;;;;;;3.90;2.40;;;;;;;-0.34;100.00;92203.06;5118936;27;21263;-78
2023/12/08 17:38:19;;;;;;;5.32;2.92;;;;;;;-0.32;100.00;92200.28;5123473;27;20035;-78
2023/12/08 17:40:45;;;;;;;5.57;3.08;;;;;;;-0.32;100.00;92197.72;5119841;27;20041;-78
2023/12/08 17:43:11;;;;;;;6.70;3.90;;;;;;;-0.33;100.00;92191.78;5116899;27;20078;-77
2023/12/08 17:45:37;;;;;;;5.40;3.80;;;;;;;-0.33;100.00;92199.50;5124184;27;20057;-78
2023/12/08 17:48:04;;;;;;;5.72;3.60;;;;;;;-0.32;100.00;92198.50;5122421;27;20088;-77
2023/12/08 17:50:29;;;;;;;6.72;4.05;;;;;;;-0.32;100.00;92193.34;5126563;27;20043;-77
2023/12/08 17:52:55;;;;;;;7.57;4.13;;;;;;;-0.30;100.00;92200.84;5120038;27;20038;-77
2023/12/08 17:55:20;;;;;;;15.70;4.55;;;;;;;-0.24;100.00;92211.00;5090704;27;20101;-77
2023/12/08 17:57:46;;;;;;;30.42;3.92;;;;;;;-0.14;100.00;92205.28;5117911;27;20112;-77
2023/12/08 18:00:13;;;;;;;42.47;5.20;;;;;;;-0.11;100.00;92204.84;5101516;27;20036;-77
2023/12/08 18:02:41;;;;;;;389.58;15.77;;;;;;;-0.17;100.00;92212.69;5114364;27;20031;-77
2023/12/08 18:05:06;;;;;;;149.80;8.63;;;;;;;-0.25;100.00;92216.38;5115279;27;20517;-77
2023/12/08 18:07:32;;;;;;;129.27;7.22;;;;;;;-0.26;100.00;92225.13;5122431;27;20059;-77
2023/12/08 18:09:58;;;;;;;12.07;2.60;;;;;;;-0.28;100.00;92227.13;5091654;27;20050;-78
2023/12/08 18:12:25;;;;;;;99.88;7.38;;;;;;;-0.28;100.00;92220.19;5108043;27;20031;-77
2023/12/08 18:14:50;;;;;;;18.73;4.70;;;;;;;-0.29;100.00;92216.06;5125137;27;20489;-79
2023/12/08 18:17:19;;;;;;;19.08;4.85;;;;;;;-0.26;100.00;92214.81;5119092;27;20024;-77
2023/12/08 18:19:45;;;;;;;29.73;4.65;;;;;;;-0.27;100.00;92221.75;5123618;27;20041;-77
2023/12/08 18:22:11;;;;;;;8.98;4.15;;;;;;;-0.23;100.00;92228.00;5100115;28;20044;-78
2023/12/08 18:24:37;;;;;;;7.25;4.70;;;;;;;-0.19;100.00;92230.91;5096962;28;20495;-76
2023/12/08 18:27:03;;;;;;;7.25;4.70;;;;;;;-0.21;100.00;92222.63;5098413;28;20036;-77
2023/12/08 18:29:29;;;;;;;7.72;4.55;;;;;;;-0.19;100.00;92215.47;5098883;28;20070;-78
2023/12/08 18:31:55;;;;;;;6.60;4.40;;;;;;;-0.17;100.00;92210.13;5100563;28;20024;-77
2023/12/08 18:34:21;;;;;;;7.68;4.60;;;;;;;-0.18;100.00;92208.53;5098700;28;20055;-77
2023/12/08 18:36:47;;;;;;;26.42;7.63;;;;;;;-0.21;100.00;92215.69;5100614;28;20027;-77
2023/12/08 18:39:12;;;;;;;32.17;4.82;;;;;;;-0.03;100.00;92230.19;5102480;28;20304;-77
2023/12/08 18:41:38;;;;;;;52.55;5.97;;;;;;;-0.14;100.00;92222.50;5096295;28;20032;-77
2023/12/08 18:44:05;;;;;;;32.30;5.32;;;;;;;-0.19;100.00;92215.47;5094851;28;20114;-77
2023/12/08 18:46:32;;;;;;;57.70;7.55;;;;;;;-0.22;100.00;92206.44;5104639;28;20477;-77
2023/12/08 18:48:59;;;;;;;54.22;6.50;;;;;;;-0.26;100.00;92210.47;5095399;28;20123;-77
2023/12/08 18:51:25;;;;;;;17.65;5.32;;;;;;;-0.21;100.00;92220.84;5090725;28;20128;-77
2023/12/08 18:53:52;;;;;;;6.68;4.03;;;;;;;-0.19;100.00;92214.69;5096733;28;20656;-78
2023/12/08 18:56:18;;;;;;;5.00;3.30;;;;;;;-0.22;100.00;92219.28;5094632;28;20733;-77
2023/12/08 18:58:47;;;;;;;6.28;3.90;;;;;;;-0.23;100.00;92225.44;5101299;28;20243;-77
2023/12/08 19:01:12;;;;;;;5.75;3.40;;;;;;;-0.23;100.00;92234.94;5100952;28;20032;-78
2023/12/08 19:03:38;;;;;;;4.97;2.72;;;;;;;-0.27;100.00;92239.78;5099672;28;20547;-78
2023/12/08 19:06:04;;;;;;;29.10;4.50;;;;;;;-0.26;100.00;92233.59;5099710;28;20169;-78
2023/12/08 19:08:30;;;;;;;29.88;4.85;;;;;;;-0.28;100.00;92237.41;5099751;28;20044;-78
2023/12/08 19:10:56;;;;;;;9.48;3.90;;;;;;;-0.29;100.00;92246.94;5102971;28;20513;-77
2023/12/08 19:13:21;;;;;;;4.38;2.70;;;;;;;-0.30;100.00;92242.78;5104273;28;20039;-78
2023/12/08 19:15:48;;;;;;;20.13;3.53;;;;;;;-0.27;100.00;92244.13;5093237;28;20112;-77
2023/12/08 19:18:13;;;;;;;19.55;3.03;;;;;;;-0.29;100.00;92246.16;5097472;28;20035;-77
2023/12/08 19:20:41;;;;;;;23.17;3.55;;;;;;;-0.27;100.00;92236.41;5098532;28;20048;-77
2023/12/08 19:23:08;;;;;;;13.88;3.42;;;;;;;-0.26;100.00;92245.69;5088202;28;20065;-77
2023/12/08 19:25:34;;;;;;;5.55;3.55;;;;;;;-0.29;100.00;92246.94;5091039;28;20036;-77
2023/12/08 19:27:59;;;;;;;7.28;3.58;;;;;;;-0.27;100.00;92252.63;5094994;28;20040;-78
2023/12/08 19:30:26;;;;;;;13.45;4.13;;;;;;;-0.26;100.00;92251.63;5100917;28;20447;-77
2023/12/08 19:32:53;;;;;;;4.72;2.75;;;;;;;-0.22;100.00;92246.81;5099460;28;20040;-78
2023/12/08 19:35:19;;;;;;;5.32;3.15;;;;;;;-0.26;100.00;92245.69;5100047;28;20039;-77
2023/12/08 19:37:45;;;;;;;5.20;3.42;;;;;;;-0.27;100.00;92244.13;5095975;28;20047;-78
2023/12/08 19:40:11;;;;;;;4.22;2.42;;;;;;;-0.27;100.00;92247.50;5094306;28;20548;-77
2023/12/08 19:42:36;;;;;;;4.72;2.90;;;;;;;-0.20;100.00;92247.38;5100392;28;20035;-78
2023/12/08 19:45:03;;;;;;;4.43;2.72;;;;;;;-0.18;100.00;92257.41;5112093;28;20483;-77
2023/12/08 19:47:29;;;;;;;4.30;2.85;;;;;;;-0.28;100.00;92253.63;5097071;28;20038;-77
2023/12/08 19:49:54;;;;;;;5.30;3.50;;;;;;;-0.30;100.00;92255.63;5096278;28;20019;-77
2023/12/08 19:52:20;;;;;;;5.90;3.50;;;;;;;-0.29;100.00;92257.22;5083881;28;20085;-77
2023/12/08 19:54:46;;;;;;;5.63;3.25;;;;;;;-0.29;100.00;92248.72;5094002;28;20047;-77
2023/12/08 19:57:14;;;;;;;6.40;3.50;;;;;;;-0.29;100.00;92257.22;5097513;28;20643;-77
2023/12/08 19:59:41;;;;;;;7.70;4.15;;;;;;;-0.27;100.00;92255.22;5091562;28;20410;-77
2023/12/08 20:02:07;;;;;;;7.68;4.30;;;;;;;-0.26;100.00;92261.13;5093172;28;20412;-77
2023/12/08 20:04:33;;;;;;;6.78;3.95;;;;;;;-0.23;100.00;92250.38;5098118;28;20032;-77
2023/12/08 20:06:59;;;;;;;5.70;3.70;;;;;;;-0.23;100.00;92252.94;5100196;28;20338;-78
2023/12/08 20:09:24;;;;;;;4.85;3.10;;;;;;;-0.23;100.00;92238.28;5098782;28;20040;-77
2023/12/08 20:11:50;;;;;;;6.35;2.97;;;;;;;-0.24;100.00;92244.47;5103235;28;20088;-78
2023/12/08 20:14:15;;;;;;;4.50;2.85;;;;;;;-0.26;100.00;92232.84;5104841;28;20032;-77
2023/12/08 20:16:44;;;;;;;6.40;4.15;;;;;;;-0.16;100.00;92239.97;5098702;28;20134;-77
2023/12/08 20:19:09;;;;;;;10.90;3.85;;;;;;;-0.06;100.00;92247.91;5099434;28;20130;-77
2023/12/08 20:21:35;;;;;;;5.50;3.45;;;;;;;-0.11;100.00;92243.44;5105568;28;20110;-77
2023/12/08 20:24:01;;;;;;;5.47;3.78;;;;;;;-0.09;100.00;92244.00;5099463;28;20075;-77
2023/12/08 20:26:26;;;;;;;8.98;3.80;;;;;;;-0.07;100.00;92238.59;5102857;28;20044;-77
2023/12/08 20:28:54;;;;;;;10.88;4.00;;;;;;;-0.09;100.00;92243.19;5094570;28;20027;-77
2023/12/08 20:31:22;;;;;;;10.45;4.05;;;;;;;-0.15;100.00;92236.41;5102329;28;20036;-77
2023/12/08 20:33:48;;;;;;;7.60;3.58;;;;;;;-0.19;100.00;92235.28;5097812;28;20032;-77
2023/12/08 20:36:14;;;;;;;6.85;4.57;;;;;;;-0.23;100.00;92230.56;5103297;28;20406;-77
2023/12/08 20:38:40;;;;;;;5.22;3.35;;;;;;;-0.25;100.00;92229.22;5098912;28;20092;-77
2023/12/08 20:41:06;;;;;;;5.25;3.40;;;;;;;-0.24;100.00;92229.03;5105745;28;20510;-77
2023/12/08 20:43:31;;;;;;;6.82;4.18;;;;;;;-0.21;100.00;92232.94;5098717;28;20036;-77
2023/12/08 20:46:02;;;;;;;6.30;4.18;;;;;;;-0.22;100.00;92229.56;5095538;28;20162;-77
2023/12/08 20:48:28;;;;;;;6.40;4.38;;;;;;;-0.25;100.00;92224.91;5096552;28;20092;-78
2023/12/08 20:50:54;;;;;;;5.93;3.92;;;;;;;-0.24;100.00;92218.72;5094991;28;20024;-77
2023/12/08 20:53:19;;;;;;;5.35;3.53;;;;;;;-0.27;100.00;92224.34;5092616;28;20461;-77
2023/12/08 20:55:45;;;;;;;5.35;3.47;;;;;;;-0.26;100.00;92220.75;5098811;28;20044;-77
2023/12/08 20:58:11;;;;;;;5.13;3.30;;;;;;;-0.27;100.00;92224.34;5082972;28;20197;-77
2023/12/08 21:00:39;;;;;;;5.07;3.22;;;;;;;-0.28;100.00;92217.63;5103579;28;20034;-78
2023/12/08 21:03:07;;;;;;;4.07;2.65;;;;;;;-0.28;100.00;92220.19;5097225;28;20044;-77
2023/12/08 21:05:33;;;;;;;4.15;2.85;;;;;;;-0.23;100.00;92222.06;5097152;28;20911;-77
2023/12/08 21:07:58;;;;;;;4.35;2.80;;;;;;;-0.23;100.00;92230.56;5102527;28;20039;-77
2023/12/08 21:10:24;;;;;;;3.83;2.67;;;;;;;-0.24;100.00;92228.25;5096768;28;20055;-77
2023/12/08 21:12:49;;;;;;;3.72;2.42;;;;;;;-0.26;100.00;92231.03;5094649;28;20043;-77
2023/12/08 21:15:16;;;;;;;3.50;2.30;;;;;;;-0.25;100.00;92232.63;5103109;28;20475;-77
2023/12/08 21:17:42;;;;;;;2.83;1.83;;;;;;;-0.26;100.00;92236.19;5101441;28;20067;-77
2023/12/08 21:20:08;;;;;;;3.40;2.00;;;;;;;-0.28;100.00;92227.13;5098886;28;20477;-77
2023/12/08 21:22:37;;;;;;;3.15;2.00;;;;;;;-0.26;100.00;92235.41;5093986;28;20039;-77
2023/12/08 21:25:03;;;;;;;3.03;1.80;;;;;;;-0.29;100.00;92228.94;5096136;28;20038;-77
2023/12/08 21:27:28;;;;;;;3.28;1.90;;;;;;;-0.28;100.00;92230.47;5102549;28;20044;-79
2023/12/08 21:29:54;;;;;;;3.47;2.10;;;;;;;-0.31;100.00;92228.38;5079962;28;20036;-78
2023/12/08 21:32:20;;;;;;;2.97;1.83;;;;;;;-0.28;100.00;92232.28;5098917;28;20093;-79
2023/12/08 21:34:46;;;;;;;2.78;1.80;;;;;;;-0.30;100.00;92239.44;5100911;28;20028;-80
2023/12/08 21:37:12;;;;;;;3.17;1.92;;;;;;;-0.34;100.00;92236.50;5098403;28;20098;-78
2023/12/08 21:39:37;;;;;;;3.10;2.00;;;;;;;-0.22;100.00;92231.38;5105050;28;20050;-79
2023/12/08 21:42:03;;;;;;;2.55;1.70;;;;;;;-0.17;100.00;92236.63;5105155;28;20040;-78
2023/12/08 21:44:29;;;;;;;3.78;1.92;;;;;;;-0.19;100.00;92235.28;5107112;28;20047;-78
2023/12/08 21:46:55;;;;;;;3.60;2.00;;;;;;;-0.25;100.00;92245.47;5104637;28;20125;-78
2023/12/08 21:49:20;;;;;;;3.10;2.10;;;;;;;-0.27;100.00;92250.06;5107543;28;20116;-78
2023/12/08 21:51:46;;;;;;;3.25;2.20;;;;;;;-0.28;100.00;92252.84;5107847;28;20113;-79
2023/12/08 21:54:11;;;;;;;3.63;2.30;;;;;;;-0.32;100.00;92262.03;5109453;28;20040;-78
2023/12/08 21:56:37;;;;;;;3.67;2.42;;;;;;;-0.30;100.00;92265.16;5104132;28;20027;-78
2023/12/08 21:59:02;;;;;;;3.38;2.30;;;;;;;-0.30;100.00;92265.16;5107737;28;20036;-78
2023/12/08 22:01:28;;;;;;;3.70;2.40;;;;;;;-0.33;100.00;92265.63;5111012;28;20032;-79
2023/12/08 22:03:56;;;;;;;3.25;1.95;;;;;;;-0.39;100.00;92257.00;5110636;28;20023;-79
2023/12/08 22:06:22;;;;;;;3.22;2.13;;;;;;;-0.35;100.00;92257.34;5106125;28;20075;-79
2023/12/08 22:08:48;;;;;;;4.22;2.50;;;;;;;-0.36;100.00;92269.41;5105315;28;20035;-79
2023/12/08 22:11:13;;;;;;;3.42;2.10;;;;;;;-0.40;100.00;92265.72;5099474;28;20085;-79
2023/12/08 22:13:39;;;;;;;3.00;1.90;;;;;;;-0.37;100.00;92278.13;5096640;28;20040;-78
